createdAt,value
2019-01-10T00:02:40.932Z,25.50
2019-01-10T00:05:28.615Z,25.00
2019-01-10T00:08:15.778Z,25.77
2019-01-10T00:11:02.051Z,25.53
2019-01-10T00:13:49.055Z,25.83
2019-01-10T00:16:35.578Z,25.30
2019-01-10T00:19:22.692Z,25.80
2019-01-10T00:22:09.595Z,25.17
2019-01-10T00:24:55.775Z,24.77
2019-01-10T00:27:42.819Z,25.50
2019-01-10T00:30:29.106Z,25.00
2019-01-10T00:33:15.892Z,24.57
2019-01-10T00:36:02.844Z,24.73
2019-01-10T00:38:49.919Z,25.33
2019-01-10T00:41:36.835Z,24.67
2019-01-10T00:44:23.668Z,24.77
2019-01-10T00:47:10.642Z,24.53
2019-01-10T00:49:57.019Z,25.30
2019-01-10T00:52:43.952Z,24.63
2019-01-10T00:55:30.214Z,25.60
2019-01-10T00:58:17.287Z,25.80
2019-01-10T01:01:04.000Z,25.77
2019-01-10T01:03:50.303Z,25.60
2019-01-10T01:06:36.560Z,24.90
2019-01-10T01:09:22.855Z,25.53
2019-01-10T01:12:09.859Z,24.70
2019-01-10T01:14:56.814Z,24.57
2019-01-10T01:17:43.391Z,25.47
2019-01-10T01:20:30.466Z,26.07
2019-01-10T01:23:17.524Z,25.33
2019-01-10T01:26:04.098Z,25.80
2019-01-10T01:28:50.406Z,26.37
2019-01-10T01:31:36.778Z,25.53
2019-01-10T01:34:23.108Z,25.57
2019-01-10T01:37:09.438Z,26.43
2019-01-10T01:39:56.491Z,25.73
2019-01-10T01:42:42.820Z,26.03
2019-01-10T01:45:29.390Z,25.47
2019-01-10T01:48:16.307Z,25.03
2019-01-10T01:51:03.450Z,26.40
2019-01-10T01:53:50.095Z,25.33
2019-01-10T01:56:36.666Z,26.03
2019-01-10T01:59:23.609Z,26.80
2019-01-10T02:02:10.334Z,25.57
2019-01-10T02:04:57.491Z,25.77
2019-01-10T02:07:43.882Z,25.70
2019-01-10T02:10:30.734Z,26.30
2019-01-10T02:13:17.648Z,26.13
2019-01-10T02:16:04.351Z,26.33
2019-01-10T02:18:51.496Z,25.63
2019-01-10T02:21:38.416Z,25.77
2019-01-10T02:24:25.032Z,26.83
2019-01-10T02:27:11.968Z,26.63
2019-01-10T02:29:58.987Z,26.57
2019-01-10T02:32:46.014Z,26.13
2019-01-10T02:35:33.220Z,26.40
2019-01-10T02:38:19.735Z,26.97
2019-01-10T02:41:06.408Z,26.23
2019-01-10T02:43:53.527Z,26.27
2019-01-10T02:46:40.394Z,26.93
2019-01-10T02:49:27.240Z,27.30
2019-01-10T02:52:13.739Z,26.80
2019-01-10T02:55:00.724Z,27.23
2019-01-10T02:57:47.876Z,27.23
2019-01-10T03:00:34.367Z,26.87
2019-01-10T03:03:20.856Z,26.73
2019-01-10T03:06:08.088Z,26.37
2019-01-10T03:08:54.858Z,25.67
2019-01-10T03:11:41.599Z,26.47
2019-01-10T03:14:28.600Z,25.97
2019-01-10T03:17:14.894Z,26.90
2019-01-10T03:20:02.016Z,27.00
2019-01-10T03:22:48.868Z,27.13
2019-01-10T03:25:35.522Z,25.93
2019-01-10T03:28:23.149Z,26.63
2019-01-10T03:31:10.181Z,25.90
2019-01-10T03:33:56.480Z,27.07
2019-01-10T03:36:43.473Z,26.43
2019-01-10T03:39:29.768Z,26.40
2019-01-10T03:42:16.409Z,26.47
2019-01-10T03:45:03.208Z,26.90
2019-01-10T03:47:50.015Z,26.60
2019-01-10T03:50:37.952Z,26.97
2019-01-10T03:53:23.065Z,27.63
2019-01-10T03:56:09.981Z,27.00
2019-01-10T03:58:57.006Z,26.60
2019-01-10T04:01:43.306Z,27.50
2019-01-10T04:04:29.756Z,26.27
2019-01-10T04:07:16.894Z,26.30
2019-01-10T04:10:03.929Z,26.90
2019-01-10T04:12:50.965Z,27.10
2019-01-10T04:15:38.047Z,26.70
2019-01-10T04:18:25.296Z,27.07
2019-01-10T04:21:17.467Z,26.77
2019-01-10T04:24:00.928Z,27.07
2019-01-10T04:26:47.900Z,27.07
2019-01-10T04:29:34.395Z,27.17
2019-01-10T04:32:21.504Z,26.47
2019-01-10T04:35:07.800Z,26.57
2019-01-10T04:37:54.958Z,26.77
2019-01-10T04:40:41.849Z,26.50
2019-01-10T04:43:28.903Z,27.43
2019-01-10T04:46:15.565Z,26.80
2019-01-10T04:49:02.748Z,27.57
2019-01-10T04:51:49.445Z,27.40
2019-01-10T04:54:38.417Z,27.87
2019-01-10T04:57:24.480Z,27.43
2019-01-10T05:00:10.778Z,27.87
2019-01-10T05:02:57.892Z,27.13
2019-01-10T05:05:44.609Z,26.23
2019-01-10T05:08:31.498Z,27.10
2019-01-10T05:11:18.026Z,26.13
2019-01-10T05:14:04.727Z,26.53
2019-01-10T05:16:51.339Z,25.60
2019-01-10T05:19:38.418Z,26.77
2019-01-10T05:22:25.076Z,26.80
2019-01-10T05:25:12.041Z,26.83
2019-01-10T05:27:59.136Z,26.80
2019-01-10T05:30:45.753Z,27.43
2019-01-10T05:33:32.731Z,26.43
2019-01-10T05:36:19.641Z,25.23
2019-01-10T05:39:06.343Z,26.77
2019-01-10T05:41:52.612Z,27.03
2019-01-10T05:44:39.621Z,26.53
2019-01-10T05:47:26.364Z,26.33
2019-01-10T05:50:12.865Z,27.10
2019-01-10T05:52:59.163Z,27.73
2019-01-10T05:55:45.959Z,27.83
2019-01-10T05:58:32.558Z,26.83
2019-01-10T06:01:19.451Z,27.90
2019-01-10T06:04:06.335Z,28.30
2019-01-10T06:06:53.202Z,27.50
2019-01-10T06:09:39.760Z,27.40
2019-01-10T06:12:26.068Z,27.63
2019-01-10T06:15:13.044Z,27.53
2019-01-10T06:18:00.202Z,28.27
2019-01-10T06:20:47.115Z,27.47
2019-01-10T06:23:34.160Z,28.10
2019-01-10T06:26:20.961Z,28.33
2019-01-10T06:29:07.395Z,29.07
2019-01-10T06:31:54.215Z,27.63
2019-01-10T06:34:40.813Z,27.87
2019-01-10T06:37:27.664Z,28.27
2019-01-10T06:40:14.287Z,27.77
2019-01-10T06:43:01.274Z,27.10
2019-01-10T06:45:47.939Z,28.10
2019-01-10T06:48:35.043Z,26.33
2019-01-10T06:51:22.064Z,28.45
2019-01-10T06:54:08.842Z,27.57
2019-01-10T06:56:55.667Z,27.07
2019-01-10T06:59:42.747Z,27.00
2019-01-10T07:02:29.796Z,26.93
2019-01-10T07:05:16.775Z,26.20
2019-01-10T07:08:03.323Z,26.13
2019-01-10T07:10:49.955Z,27.10
2019-01-10T07:13:36.803Z,25.90
2019-01-10T07:16:23.417Z,26.67
2019-01-10T07:19:10.520Z,26.63
2019-01-10T07:21:57.131Z,26.20
2019-01-10T07:24:45.871Z,27.20
2019-01-10T07:27:20.709Z,27.07
2019-01-10T07:30:36.253Z,26.73
2019-01-10T07:33:41.653Z,26.97
2019-01-10T07:36:28.414Z,26.83
2019-01-10T07:42:08.820Z,27.37
2019-01-10T07:48:28.564Z,27.17
2019-01-10T07:51:15.109Z,28.30
2019-01-10T07:54:01.389Z,27.27
2019-01-10T07:56:48.313Z,27.63
2019-01-10T07:59:35.225Z,27.20
2019-01-10T08:02:22.006Z,28.37
2019-01-10T08:05:08.947Z,29.53
2019-01-10T08:07:55.951Z,30.00
2019-01-10T08:10:43.084Z,29.43
2019-01-10T08:13:30.164Z,29.80
2019-01-10T08:16:16.763Z,30.67
2019-01-10T08:19:03.764Z,29.37
2019-01-10T08:21:50.665Z,29.60
2019-01-10T08:24:36.975Z,29.17
2019-01-10T08:27:23.518Z,31.00
2019-01-10T08:30:10.339Z,30.23
2019-01-10T08:32:57.322Z,29.87
2019-01-10T08:35:44.403Z,29.67
2019-01-10T08:38:31.459Z,29.53
2019-01-10T08:41:18.200Z,31.00
2019-01-10T08:44:04.503Z,29.83
2019-01-10T08:46:51.444Z,29.70
